createdAt,value
2023-03-19T00:00:53.560Z,98498.81
2023-03-19T00:03:20.149Z,98493.53
2023-03-19T00:05:53.697Z,98493.53
2023-03-19T00:08:20.389Z,98495.28
2023-03-19T00:10:54.377Z,98491.81
2023-03-19T00:13:23.756Z,98487.34
2023-03-19T00:15:50.488Z,98495.25
2023-03-19T00:18:17.014Z,98493.44
2023-03-19T00:20:43.757Z,98489.91
2023-03-19T00:23:10.353Z,98488.13
2023-03-19T00:25:37.206Z,98479.31
2023-03-19T00:28:03.790Z,98473.16
2023-03-19T00:30:30.804Z,98474.03
2023-03-19T00:32:57.513Z,98474.88
2023-03-19T00:35:27.738Z,98482.88
2023-03-19T00:37:55.291Z,98472.28
2023-03-19T00:40:22.021Z,98477.53
2023-03-19T00:42:48.548Z,98474.91
2023-03-19T00:45:15.245Z,98476.63
2023-03-19T00:47:43.898Z,98472.22
2023-03-19T00:50:12.472Z,98470.47
2023-03-19T00:52:39.037Z,98470.44
2023-03-19T00:55:05.804Z,98475.75
2023-03-19T00:57:32.463Z,98468.69
2023-03-19T00:59:58.917Z,98468.72
2023-03-19T01:02:28.990Z,98466.97
2023-03-19T01:04:55.795Z,98472.22
2023-03-19T01:07:22.623Z,98472.22
2023-03-19T01:09:49.110Z,98467.88
2023-03-19T01:12:25.138Z,98471.50
2023-03-19T01:14:51.604Z,98465.31
2023-03-19T01:17:18.079Z,98460.03
2023-03-19T01:19:44.560Z,98465.38
2023-03-19T01:22:11.200Z,98457.56
2023-03-19T01:24:37.670Z,98465.56
2023-03-19T01:27:04.345Z,98457.72
2023-03-19T01:29:31.949Z,98459.47
2023-03-19T01:32:01.615Z,98463.91
2023-03-19T01:34:28.125Z,98457.75
2023-03-19T01:36:55.187Z,98462.94
2023-03-19T01:39:21.682Z,98462.00
2023-03-19T01:41:48.255Z,98459.31
2023-03-19T01:44:33.006Z,98459.22
2023-03-19T01:47:06.500Z,98459.19
2023-03-19T01:49:34.461Z,98460.06
2023-03-19T01:52:03.372Z,98461.06
2023-03-19T01:54:32.475Z,98456.66
2023-03-19T01:57:03.392Z,98458.44
2023-03-19T01:59:33.971Z,98455.03
2023-03-19T02:02:00.432Z,98456.84
2023-03-19T02:04:28.999Z,98455.88
2023-03-19T02:06:56.833Z,98455.88
2023-03-19T02:09:29.030Z,98456.72
2023-03-19T02:12:01.863Z,98452.41
2023-03-19T02:14:28.625Z,98452.59
2023-03-19T02:16:59.135Z,98457.88
2023-03-19T02:19:48.406Z,98456.97
2023-03-19T02:22:18.790Z,98466.63
2023-03-19T02:25:08.439Z,98463.13
2023-03-19T02:27:34.989Z,98461.41
2023-03-19T02:30:18.855Z,98464.97
2023-03-19T02:32:51.374Z,98463.28
2023-03-19T02:35:21.358Z,98464.09
2023-03-19T02:37:48.038Z,98456.09
2023-03-19T02:40:27.060Z,98465.78
2023-03-19T02:42:53.580Z,98472.00
2023-03-19T02:45:21.306Z,98460.53
2023-03-19T02:47:47.780Z,98464.03
2023-03-19T02:50:14.545Z,98467.66
2023-03-19T02:52:41.182Z,98465.94
2023-03-19T02:55:11.523Z,98458.88
2023-03-19T02:57:41.270Z,98466.88
2023-03-19T03:00:12.282Z,98466.88
2023-03-19T03:02:44.559Z,98461.56
2023-03-19T03:05:11.062Z,98470.41
2023-03-19T03:07:37.718Z,98476.59
2023-03-19T03:10:04.358Z,98470.44
2023-03-19T03:12:31.643Z,98470.53
2023-03-19T03:14:58.126Z,98473.13
2023-03-19T03:17:24.851Z,98475.81
2023-03-19T03:19:51.602Z,98483.72
2023-03-19T03:22:18.097Z,98484.63
2023-03-19T03:24:44.663Z,98477.56
2023-03-19T03:27:11.668Z,98482.84
2023-03-19T03:29:38.144Z,98484.63
2023-03-19T03:32:04.892Z,98474.94
2023-03-19T03:34:31.374Z,98474.03
2023-03-19T03:36:57.888Z,98480.22
2023-03-19T03:39:24.313Z,98481.94
2023-03-19T03:41:51.610Z,98483.75
2023-03-19T03:44:18.178Z,98481.94
2023-03-19T03:46:44.661Z,98480.19
2023-03-19T03:49:11.353Z,98481.09
2023-03-19T03:51:37.826Z,98486.38
2023-03-19T03:54:04.370Z,98488.16
2023-03-19T03:56:31.434Z,98480.31
2023-03-19T03:58:57.956Z,98485.69
2023-03-19T04:01:24.600Z,98487.47
2023-03-19T04:03:51.105Z,98483.91
2023-03-19T04:06:20.962Z,98484.78
2023-03-19T04:08:47.802Z,98486.53
2023-03-19T04:11:15.078Z,98490.91
2023-03-19T04:13:42.219Z,98485.63
2023-03-19T04:16:10.088Z,98490.94
2023-03-19T04:18:37.633Z,98490.94
2023-03-19T04:21:07.811Z,98484.78
2023-03-19T04:23:34.646Z,98483.88
2023-03-19T04:26:07.059Z,98478.53
2023-03-19T04:28:34.609Z,98485.59
2023-03-19T04:31:12.539Z,98486.44
2023-03-19T04:33:39.131Z,98485.53
2023-03-19T04:36:06.042Z,98485.53
2023-03-19T04:38:32.870Z,98492.56
2023-03-19T04:40:59.555Z,98482.06
2023-03-19T04:43:26.155Z,98478.53
2023-03-19T04:45:52.805Z,98481.19
2023-03-19T04:48:19.451Z,98488.19
2023-03-19T04:50:48.730Z,98483.78
2023-03-19T04:53:15.300Z,98482.88
2023-03-19T04:55:41.752Z,98481.97
2023-03-19T04:58:09.184Z,98485.66
2023-03-19T05:00:36.297Z,98479.59
2023-03-19T05:03:02.897Z,98476.03
2023-03-19T05:05:29.650Z,98481.28
2023-03-19T05:07:57.363Z,98483.94
2023-03-19T05:10:26.932Z,98485.69
2023-03-19T05:12:53.397Z,98494.50
2023-03-19T05:15:19.847Z,98501.56
2023-03-19T05:17:46.351Z,98490.19
2023-03-19T05:20:16.427Z,98496.41
2023-03-19T05:22:42.873Z,98498.19
2023-03-19T05:25:09.721Z,98501.69
2023-03-19T05:27:36.274Z,98496.38
2023-03-19T05:30:03.013Z,98496.31
2023-03-19T05:32:29.551Z,98501.63
2023-03-19T05:34:56.092Z,98500.72
2023-03-19T05:37:22.569Z,98506.88
2023-03-19T05:39:49.247Z,98505.97
2023-03-19T05:42:16.382Z,98510.38
2023-03-19T05:44:43.131Z,98508.63
2023-03-19T05:47:11.460Z,98509.50
2023-03-19T05:49:38.072Z,98519.19
2023-03-19T05:52:04.980Z,98514.78
2023-03-19T05:54:31.458Z,98514.81
2023-03-19T05:56:57.992Z,98512.16
2023-03-19T05:59:24.634Z,98520.94
2023-03-19T06:01:51.224Z,98511.22
2023-03-19T06:04:17.757Z,98512.94
2023-03-19T06:06:44.311Z,98516.44
2023-03-19T06:09:10.761Z,98512.91
2023-03-19T06:11:39.562Z,98514.63
2023-03-19T06:14:06.827Z,98525.19
2023-03-19T06:16:33.354Z,98523.44
2023-03-19T06:19:00.134Z,98527.81
2023-03-19T06:21:29.603Z,98523.38
2023-03-19T06:23:56.673Z,98529.53
2023-03-19T06:26:24.038Z,98533.03
2023-03-19T06:28:50.980Z,98532.16
2023-03-19T06:31:17.547Z,98527.72
2023-03-19T06:33:44.152Z,98532.06
2023-03-19T06:36:10.945Z,98541.75
2023-03-19T06:38:37.846Z,98542.63
2023-03-19T06:41:04.580Z,98541.75
2023-03-19T06:43:31.897Z,98549.66
2023-03-19T06:45:58.449Z,98550.53
2023-03-19T06:48:25.091Z,98546.13
2023-03-19T06:50:51.562Z,98549.59
2023-03-19T06:53:18.038Z,98549.63
2023-03-19T06:55:48.118Z,98547.84
2023-03-19T06:58:14.679Z,98552.22
2023-03-19T07:00:44.276Z,98553.97
2023-03-19T07:03:11.315Z,98548.69
2023-03-19T07:05:37.765Z,98553.06
2023-03-19T07:08:04.503Z,98559.19
2023-03-19T07:10:31.022Z,98565.44
2023-03-19T07:12:57.520Z,98571.69
2023-03-19T07:15:24.045Z,98574.31
2023-03-19T07:17:53.315Z,98587.56
2023-03-19T07:20:19.993Z,98576.91
2023-03-19T07:22:46.437Z,98582.16
2023-03-19T07:25:12.979Z,98581.25
2023-03-19T07:27:39.444Z,98585.75
2023-03-19T07:30:06.776Z,98585.78
2023-03-19T07:32:33.292Z,98591.94
2023-03-19T07:34:59.810Z,98591.91
2023-03-19T07:37:28.893Z,98597.19
2023-03-19T07:39:55.563Z,98607.75
2023-03-19T07:42:22.064Z,98608.53
2023-03-19T07:44:48.500Z,98613.66
2023-03-19T07:47:26.399Z,98620.59
2023-03-19T07:49:55.704Z,98626.66
2023-03-19T07:52:22.245Z,98617.75
2023-03-19T07:54:50.095Z,98622.13
2023-03-19T07:57:16.606Z,98624.78
2023-03-19T07:59:43.115Z,98637.16
2023-03-19T08:02:13.306Z,98640.75
2023-03-19T08:04:40.542Z,98645.28
2023-03-19T08:07:08.075Z,98645.31
2023-03-19T08:09:34.625Z,98640.09
2023-03-19T08:12:01.167Z,98641.88
2023-03-19T08:14:27.697Z,98637.50
2023-03-19T08:16:54.247Z,98641.94
2023-03-19T08:19:20.934Z,98641.94
2023-03-19T08:21:47.484Z,98631.31
2023-03-19T08:24:14.064Z,98633.03
2023-03-19T08:26:40.646Z,98632.91
2023-03-19T08:29:07.293Z,98623.94
2023-03-19T08:31:33.842Z,98629.13
2023-03-19T08:34:02.710Z,98626.41
2023-03-19T08:36:29.214Z,98619.25
2023-03-19T08:38:55.812Z,98613.94
2023-03-19T08:41:22.658Z,98615.69
2023-03-19T08:43:49.509Z,98625.31
2023-03-19T08:46:16.454Z,98620.84
2023-03-19T08:48:43.292Z,98627.81
2023-03-19T08:51:10.656Z,98628.69
2023-03-19T08:53:38.694Z,98624.13
2023-03-19T08:56:07.740Z,98622.22
2023-03-19T08:58:34.629Z,98621.84
2023-03-19T09:01:03.533Z,98623.28
2023-03-19T09:03:31.115Z,98617.00
2023-03-19T09:06:02.370Z,98622.28
2023-03-19T09:08:31.029Z,98623.00
2023-03-19T09:11:01.793Z,98622.81
2023-03-19T09:13:28.355Z,98620.69
2023-03-19T09:15:55.290Z,98622.44
2023-03-19T09:18:24.037Z,98624.19
2023-03-19T09:20:50.529Z,98626.09
2023-03-19T09:23:17.121Z,98627.75
2023-03-19T09:25:43.670Z,98628.38
2023-03-19T09:28:10.633Z,98623.81
2023-03-19T09:30:37.137Z,98629.28
2023-03-19T09:33:04.382Z,98629.63
2023-03-19T09:35:32.931Z,98628.81
2023-03-19T09:38:00.806Z,98631.50
2023-03-19T09:40:46.296Z,98630.31
2023-03-19T09:43:31.880Z,98634.41
2023-03-19T09:46:01.178Z,98635.06
2023-03-19T09:48:40.796Z,98626.25
2023-03-19T09:51:12.660Z,98631.50
2023-03-19T09:53:57.404Z,98624.34
2023-03-19T09:56:25.820Z,98625.97
2023-03-19T09:58:52.574Z,98630.41
2023-03-19T10:01:49.268Z,98627.03
2023-03-19T10:04:18.876Z,98633.91
2023-03-19T10:06:45.498Z,98623.75
2023-03-19T10:09:23.372Z,98627.19
2023-03-19T10:12:13.718Z,98628.88
2023-03-19T10:15:15.933Z,98627.13
2023-03-19T10:18:05.509Z,98631.53
2023-03-19T10:20:41.178Z,98630.56
2023-03-19T10:23:28.767Z,98634.84
2023-03-19T10:25:58.533Z,98627.41
2023-03-19T10:28:27.832Z,98630.59
2023-03-19T10:31:12.778Z,98628.66
2023-03-19T10:33:42.664Z,98627.66
2023-03-19T10:36:14.727Z,98638.47
2023-03-19T10:38:43.378Z,98630.50
2023-03-19T10:41:29.429Z,98626.19
2023-03-19T10:44:05.805Z,98629.94
2023-03-19T10:46:40.278Z,98630.81
2023-03-19T10:49:14.304Z,98634.22
2023-03-19T10:51:45.441Z,98628.84
2023-03-19T10:54:21.833Z,98623.53
2023-03-19T10:56:49.905Z,98629.69
2023-03-19T10:59:30.727Z,98628.91
2023-03-19T11:01:59.800Z,98624.53
2023-03-19T11:04:28.792Z,98625.34
2023-03-19T11:07:13.707Z,98624.44
2023-03-19T11:09:47.434Z,98624.47
2023-03-19T11:12:23.023Z,98627.94
2023-03-19T11:14:52.231Z,98633.19
2023-03-19T11:17:37.740Z,98629.50
2023-03-19T11:20:27.375Z,98628.31
2023-03-19T11:22:56.538Z,98633.34
2023-03-19T11:25:36.011Z,98630.59
2023-03-19T11:28:08.348Z,98625.97
2023-03-19T11:31:05.888Z,98619.72
2023-03-19T11:34:06.519Z,98621.47
2023-03-19T11:36:38.866Z,98622.25
2023-03-19T11:39:17.387Z,98627.69
2023-03-19T11:41:58.782Z,98625.06
2023-03-19T11:44:58.165Z,98627.63
2023-03-19T11:47:28.204Z,98624.72
2023-03-19T11:50:31.919Z,98627.84
2023-03-19T11:53:16.921Z,98619.63
2023-03-19T11:56:05.245Z,98628.31
2023-03-19T11:58:53.655Z,98618.47
2023-03-19T12:01:46.843Z,98624.00
2023-03-19T12:04:50.388Z,98626.75
2023-03-19T12:07:52.335Z,98631.25
2023-03-19T12:10:46.358Z,98629.69
2023-03-19T12:13:22.323Z,98633.41
2023-03-19T12:16:01.822Z,98635.44
2023-03-19T12:19:02.308Z,98626.81
2023-03-19T12:21:41.258Z,98624.34
2023-03-19T12:24:23.814Z,98625.44
2023-03-19T12:26:53.302Z,98623.81
2023-03-19T12:29:44.844Z,98627.56
2023-03-19T12:32:30.330Z,98621.25
2023-03-19T12:35:02.241Z,98620.31
2023-03-19T12:37:35.547Z,98630.88
2023-03-19T12:40:29.577Z,98625.56
2023-03-19T12:42:59.312Z,98628.22
2023-03-19T12:45:49.782Z,98623.69
2023-03-19T12:48:28.659Z,98630.75
2023-03-19T12:50:58.886Z,98625.56
2023-03-19T12:53:43.472Z,98623.75
2023-03-19T12:56:17.637Z,98615.78
2023-03-19T12:58:56.263Z,98617.56
2023-03-19T13:01:29.542Z,98615.53
2023-03-19T13:04:33.838Z,98610.91
2023-03-19T13:07:08.746Z,98618.69
2023-03-19T13:09:49.602Z,98621.03
2023-03-19T13:12:29.159Z,98619.94
2023-03-19T13:15:11.947Z,98617.19
2023-03-19T13:17:57.909Z,98616.44
2023-03-19T13:20:39.304Z,98617.53
2023-03-19T13:23:09.706Z,98620.03
2023-03-19T13:25:48.317Z,98613.59
2023-03-19T13:28:29.110Z,98607.94
2023-03-19T13:31:08.487Z,98600.00
2023-03-19T13:33:37.526Z,98603.75
2023-03-19T13:36:15.003Z,98597.88
2023-03-19T13:38:47.080Z,98602.56
2023-03-19T13:41:35.352Z,98600.16
2023-03-19T13:44:32.579Z,98603.03
2023-03-19T13:47:23.765Z,98604.19
2023-03-19T13:50:10.786Z,98605.19
2023-03-19T13:52:48.229Z,98616.06
2023-03-19T13:55:52.776Z,98620.66
2023-03-19T13:58:41.501Z,98620.03
2023-03-19T14:01:26.960Z,98626.28
2023-03-19T14:04:17.618Z,98632.41
2023-03-19T14:06:56.672Z,98646.28
2023-03-19T14:09:59.982Z,98636.81
2023-03-19T14:12:36.179Z,98628.13
2023-03-19T14:15:09.250Z,98624.59
2023-03-19T14:17:42.578Z,98618.25
2023-03-19T14:20:12.877Z,98619.84
2023-03-19T14:23:09.001Z,98614.44
2023-03-19T14:26:23.079Z,98613.47
2023-03-19T14:28:57.832Z,98615.19
2023-03-19T14:31:27.286Z,98608.94
2023-03-19T14:34:06.463Z,98600.97
2023-03-19T14:36:38.207Z,98601.88
2023-03-19T14:39:09.441Z,98609.13
2023-03-19T14:41:43.465Z,98606.66
2023-03-19T14:44:28.668Z,98606.53
2023-03-19T14:47:42.490Z,98601.84
2023-03-19T14:50:53.971Z,98603.34
2023-03-19T14:53:37.234Z,98601.38
2023-03-19T14:56:26.531Z,98607.50
2023-03-19T14:58:55.363Z,98614.75
2023-03-19T15:01:25.013Z,98610.34
2023-03-19T15:04:03.992Z,98609.63
2023-03-19T15:06:35.047Z,98614.16
2023-03-19T15:09:02.563Z,98610.72
2023-03-19T15:11:55.420Z,98607.22
2023-03-19T15:14:57.448Z,98608.06
2023-03-19T15:17:27.376Z,98610.72
2023-03-19T15:19:55.740Z,98605.38
2023-03-19T15:22:31.492Z,98609.81
2023-03-19T15:25:14.158Z,98609.75
2023-03-19T15:27:42.331Z,98609.72
2023-03-19T15:30:23.215Z,98614.16
2023-03-19T15:33:03.787Z,98614.16
2023-03-19T15:35:36.301Z,98617.66
2023-03-19T15:38:08.960Z,98610.50
2023-03-19T15:40:37.041Z,98612.25
2023-03-19T15:43:04.073Z,98614.09
2023-03-19T15:45:35.615Z,98605.25
2023-03-19T15:48:34.889Z,98606.09
2023-03-19T15:51:04.211Z,98606.03
2023-03-19T15:53:34.213Z,98603.31
2023-03-19T15:56:02.708Z,98611.31
2023-03-19T15:58:38.386Z,98611.31
2023-03-19T16:01:08.233Z,98608.69
2023-03-19T16:03:41.514Z,98607.88
2023-03-19T16:06:17.275Z,98604.47
2023-03-19T16:08:55.416Z,98607.22
2023-03-19T16:11:28.045Z,98607.22
2023-03-19T16:14:00.113Z,98617.88
2023-03-19T16:16:30.814Z,98622.44
2023-03-19T16:18:58.428Z,98629.53
2023-03-19T16:21:27.696Z,98626.97
2023-03-19T16:24:20.157Z,98627.91
2023-03-19T16:26:48.402Z,98634.09
2023-03-19T16:29:29.797Z,98634.16
2023-03-19T16:32:02.373Z,98632.38
2023-03-19T16:34:34.829Z,98646.63
2023-03-19T16:37:01.501Z,98646.75
2023-03-19T16:39:31.072Z,98648.69
2023-03-19T16:42:26.492Z,98656.75
2023-03-19T16:44:56.114Z,98647.94
2023-03-19T16:47:22.671Z,98650.66
2023-03-19T16:49:49.253Z,98657.78
2023-03-19T16:52:20.726Z,98652.56
2023-03-19T16:54:47.262Z,98668.53
2023-03-19T16:57:15.971Z,98670.41
2023-03-19T16:59:43.262Z,98666.88
2023-03-19T17:02:12.079Z,98672.19
2023-03-19T17:04:38.569Z,98676.59
2023-03-19T17:07:05.735Z,98680.94
2023-03-19T17:09:32.458Z,98685.44
2023-03-19T17:11:59.400Z,98697.00
2023-03-19T17:14:25.876Z,98703.31
2023-03-19T17:16:52.441Z,98702.59
2023-03-19T17:19:24.452Z,98707.94
2023-03-19T17:21:53.422Z,98712.44
2023-03-19T17:24:29.110Z,98709.00
2023-03-19T17:26:58.174Z,98715.31
2023-03-19T17:29:26.139Z,98716.28
2023-03-19T17:31:54.883Z,98722.59
2023-03-19T17:34:27.121Z,98726.22
2023-03-19T17:36:56.275Z,98731.63
2023-03-19T17:39:24.243Z,98730.78
2023-03-19T17:41:51.267Z,98739.63
2023-03-19T17:44:17.757Z,98736.13
2023-03-19T17:46:50.463Z,98745.84
2023-03-19T17:49:32.873Z,98728.19
2023-03-19T17:51:59.865Z,98737.03
2023-03-19T17:54:27.260Z,98735.31
2023-03-19T17:56:54.928Z,98736.19
2023-03-19T17:59:22.131Z,98746.00
2023-03-19T18:01:48.735Z,98735.38
2023-03-19T18:04:18.498Z,98739.81
2023-03-19T18:06:50.664Z,98733.66
2023-03-19T18:09:23.483Z,98732.81
2023-03-19T18:11:50.114Z,98744.38
2023-03-19T18:14:16.661Z,98746.19
2023-03-19T18:16:43.774Z,98739.97
2023-03-19T18:19:35.789Z,98748.75
2023-03-19T18:22:06.016Z,98755.78
2023-03-19T18:24:32.471Z,98749.66
2023-03-19T18:26:58.910Z,98752.41
2023-03-19T18:29:25.438Z,98755.19
2023-03-19T18:31:52.211Z,98762.22
2023-03-19T18:34:19.478Z,98765.69
2023-03-19T18:36:46.024Z,98756.88
2023-03-19T18:39:14.444Z,98756.81
2023-03-19T18:41:41.455Z,98758.56
2023-03-19T18:44:09.461Z,98762.09
2023-03-19T18:46:38.387Z,98765.69
2023-03-19T18:49:18.937Z,98766.56
2023-03-19T18:52:00.702Z,98760.41
2023-03-19T18:54:31.399Z,98770.09
2023-03-19T18:57:00.106Z,98777.13
2023-03-19T18:59:30.396Z,98772.72
2023-03-19T19:02:03.508Z,98772.72
2023-03-19T19:04:31.235Z,98776.25
2023-03-19T19:06:58.012Z,98778.84
2023-03-19T19:09:24.550Z,98772.69
2023-03-19T19:11:51.154Z,98776.22
2023-03-19T19:14:22.188Z,98779.78
2023-03-19T19:16:49.356Z,98778.94
2023-03-19T19:19:19.121Z,98782.47
2023-03-19T19:21:46.080Z,98792.19
2023-03-19T19:24:14.885Z,98792.19
2023-03-19T19:26:46.833Z,98790.44
2023-03-19T19:29:20.650Z,98791.34
2023-03-19T19:31:47.198Z,98789.56
2023-03-19T19:34:16.742Z,98785.13
2023-03-19T19:36:43.652Z,98788.69
2023-03-19T19:39:10.509Z,98794.84
2023-03-19T19:41:37.201Z,98800.16
2023-03-19T19:44:04.202Z,98797.50
2023-03-19T19:46:32.231Z,98806.31
2023-03-19T19:48:59.225Z,98808.13
2023-03-19T19:51:28.095Z,98817.88
2023-03-19T19:53:54.631Z,98805.53
2023-03-19T19:56:23.991Z,98817.88
2023-03-19T19:58:53.162Z,98811.66
2023-03-19T20:01:22.100Z,98809.00
2023-03-19T20:03:50.126Z,98816.94
2023-03-19T20:06:17.677Z,98812.56
2023-03-19T20:08:45.360Z,98815.19
2023-03-19T20:11:19.950Z,98822.25
2023-03-19T20:13:52.447Z,98817.84
2023-03-19T20:16:20.890Z,98821.34
2023-03-19T20:18:48.345Z,98816.03
2023-03-19T20:21:15.898Z,98829.28
2023-03-19T20:23:44.496Z,98831.97
2023-03-19T20:26:14.274Z,98830.22
2023-03-19T20:28:41.913Z,98828.47
2023-03-19T20:31:19.548Z,98833.75
2023-03-19T20:33:46.130Z,98829.31
2023-03-19T20:36:15.677Z,98831.06
2023-03-19T20:38:42.553Z,98834.56
2023-03-19T20:41:21.716Z,98838.09
2023-03-19T20:43:49.136Z,98834.59
2023-03-19T20:46:20.778Z,98840.75
2023-03-19T20:48:49.113Z,98848.72
2023-03-19T20:51:22.605Z,98848.75
2023-03-19T20:53:51.238Z,98843.47
2023-03-19T20:56:21.026Z,98851.38
2023-03-19T20:58:47.702Z,98848.75
2023-03-19T21:01:15.331Z,98849.63
2023-03-19T21:03:42.312Z,98852.28
2023-03-19T21:06:22.702Z,98854.88
2023-03-19T21:08:58.561Z,98860.16
2023-03-19T21:11:38.773Z,98855.75
2023-03-19T21:14:09.203Z,98861.94
2023-03-19T21:16:36.311Z,98862.81
2023-03-19T21:19:03.087Z,98864.56
2023-03-19T21:21:36.439Z,98857.53
2023-03-19T21:24:09.314Z,98869.00
2023-03-19T21:26:38.357Z,98861.94
2023-03-19T21:29:11.026Z,98864.56
2023-03-19T21:31:37.484Z,98870.72
2023-03-19T21:34:03.985Z,98868.06
2023-03-19T21:36:30.439Z,98863.63
2023-03-19T21:38:58.929Z,98872.47
2023-03-19T21:41:33.248Z,98856.59
2023-03-19T21:44:05.661Z,98868.09
2023-03-19T21:46:32.455Z,98868.97
2023-03-19T21:49:02.451Z,98865.44
2023-03-19T21:51:29.582Z,98860.13
2023-03-19T21:53:56.407Z,98866.31
2023-03-19T21:56:32.858Z,98867.22
2023-03-19T21:59:09.695Z,98867.22
2023-03-19T22:01:42.380Z,98866.31
2023-03-19T22:04:12.320Z,98868.09
2023-03-19T22:06:40.518Z,98868.09
2023-03-19T22:09:07.030Z,98866.31
2023-03-19T22:11:37.699Z,98857.47
2023-03-19T22:14:11.126Z,98873.38
2023-03-19T22:16:37.908Z,98866.31
2023-03-19T22:19:04.768Z,98862.78
2023-03-19T22:21:32.902Z,98866.31
2023-03-19T22:24:02.226Z,98870.72
2023-03-19T22:26:44.379Z,98866.31
2023-03-19T22:29:17.742Z,98872.50
2023-03-19T22:31:45.322Z,98871.63
2023-03-19T22:34:17.106Z,98874.28
2023-03-19T22:36:44.272Z,98876.91
2023-03-19T22:39:10.837Z,98875.16
2023-03-19T22:41:40.939Z,98881.34
2023-03-19T22:44:14.482Z,98882.22
2023-03-19T22:46:44.580Z,98871.63
2023-03-19T22:49:15.377Z,98873.38
2023-03-19T22:51:41.918Z,98876.91
2023-03-19T22:54:10.794Z,98875.13
2023-03-19T22:56:37.756Z,98872.47
2023-03-19T22:59:04.711Z,98874.25
2023-03-19T23:01:43.384Z,98868.09
2023-03-19T23:04:16.634Z,98862.81
2023-03-19T23:06:43.196Z,98863.69
2023-03-19T23:09:24.540Z,98863.69
2023-03-19T23:11:51.608Z,98862.81
2023-03-19T23:14:29.024Z,98863.72
2023-03-19T23:19:28.057Z,98867.22
2023-03-19T23:21:55.029Z,98862.84
2023-03-19T23:24:30.897Z,98855.78
2023-03-19T23:27:06.615Z,98858.44
2023-03-19T23:29:43.525Z,98862.84
2023-03-19T23:32:11.378Z,98860.19
2023-03-19T23:34:53.619Z,98856.66
2023-03-19T23:37:24.491Z,98856.66
2023-03-19T23:39:54.116Z,98860.19
2023-03-19T23:42:28.985Z,98861.09
2023-03-19T23:44:59.496Z,98857.53
2023-03-19T23:47:32.214Z,98860.19
2023-03-19T23:49:59.262Z,98864.63
2023-03-19T23:52:26.089Z,98859.31
2023-03-19T23:54:52.631Z,98863.72
2023-03-19T23:57:21.497Z,98863.72
2023-03-19T23:59:51.036Z,98867.25
